Air Resources Laboratory banner image
Air Resources Laboratory web site National Oceanic and Atmospheric Administration (NOAA)

ky metar


KBWG 191553Z AUTO 19017G26KT 10SM BKN080 22/16 A3014 RMK AO2 PK WND 19028/1531
 SLP203 T02170156=
KCVG 191552Z 20018G26KT 10SM BKN019 BKN200 18/15 A3005 RMK AO2 PK WND
 19027/1459 SLP174 T01830150=
KEHR 191556Z AUTO 20018G24KT 10SM BKN017 18/15 A3005 RMK AO2 PK WND 20026/1545
 SLP187 T01780150=
KEKX 191555Z AUTO 21016G22KT 10SM CLR 20/15 A3011 RMK AO2 T01950148=
KFFT 191553Z AUTO 20016G31KT 10SM BKN028 21/14 A3010 RMK AO2 PK WND 19031/1548
 SLP190 T02110139=
KFTK 191556Z AUTO 20016G24KT 10SM CLR 20/14 A3009 RMK AO2 PK WND 18026/31
 SLP191 T02030140=
KHOP 191556Z AUTO 19014G23KT 10SM CLR 21/13 A3010 RMK AO2 SLP192 T02080132 $=
KJKL 191553Z AUTO 19010G24KT 10SM SCT025 19/13 A3021 RMK AO2 SLP224 T01940128=
KLEX 191554Z 20019G27KT 10SM OVC025 20/14 A3014 RMK AO2 PK WND 20030/1542
 SLP202 T02000144=
KLOU 191553Z 20018G27KT 10SM SCT027 21/15 A3008 RMK AO2 PK WND 19029/1535
 SLP183 T02110150=
KLOZ 191553Z AUTO 18015KT 10SM SCT022 BKN030 18/13 A3022 RMK AO2 SLP231
 T01780133 $=
KOWB 191556Z 21020G28KT 10SM BKN020 19/15 A3007 RMK AO2 PRESRR SLP195 T01890150=
KPAH 191553Z 21012G20KT 160V230 10SM OVC013 18/14 A3006 RMK AO2 PK WND
 20026/1501 SLP176 T01780139=
KSDF 191556Z 19015G26KT 10SM FEW026 FEW090 FEW150 SCT250 21/14 A3007 RMK AO2 PK
 WND 19030/1518 SLP180 T02110144=
KSME 191555Z AUTO 10SM SCT020 BKN060 18/13 A3022 RMK AO2=